Time;durP1;ratioP1;P1;durP2;ratioP2;P2;SDS_P1;SDS_P2;PMS_P1;PMS_P2;Temp;Humidity;BMP_temperature;BMP_pressure;BME280_temperature;BME280_humidity;BME280_pressure;Samples;Min_cycle;Max_cycle;Signal;HPM_P1;HPM_P2
2023/03/30 00:01:30;;;;;;;0.20;0.20;;;;;;;;;;5021172;28;20194;-79
2023/03/30 00:03:57;;;;;;;0.40;0.40;;;;;;;;;;5008522;28;20041;-77
2023/03/30 00:06:25;;;;;;;0.20;0.10;;;;;;;;;;5008441;28;20037;-79
2023/03/30 00:08:55;;;;;;;0.20;0.17;;;;;;;;;;5026909;28;20040;-79
2023/03/30 00:11:23;;;;;;;0.20;0.17;;;;;;;;;;5007715;28;20049;-78
2023/03/30 00:13:50;;;;;;;0.20;0.20;;;;;;;;;;5023280;28;20033;-77
2023/03/30 00:16:17;;;;;;;0.20;0.10;;;;;;;;;;4995649;28;20045;-77
2023/03/30 00:18:43;;;;;;;0.20;0.10;;;;;;;;;;5004816;28;20049;-79
2023/03/30 00:21:10;;;;;;;0.20;0.10;;;;;;;;;;5020072;28;20051;-77
2023/03/30 00:23:36;;;;;;;0.20;0.10;;;;;;;;;;5005511;28;20418;-77
2023/03/30 00:26:02;;;;;;;0.20;0.10;;;;;;;;;;5020223;28;21391;-77
2023/03/30 00:28:33;;;;;;;0.20;0.17;;;;;;;;;;5008707;28;20032;-79
2023/03/30 00:31:00;;;;;;;0.20;0.10;;;;;;;;;;5027533;28;20040;-78
2023/03/30 00:33:26;;;;;;;0.20;0.10;;;;;;;;;;5018290;28;20052;-78
2023/03/30 00:35:53;;;;;;;0.20;0.17;;;;;;;;;;5012637;28;20045;-78
2023/03/30 00:38:20;;;;;;;0.30;0.30;;;;;;;;;;5020488;28;20413;-79
2023/03/30 00:40:51;;;;;;;0.20;0.10;;;;;;;;;;5008365;28;20131;-78
2023/03/30 00:43:17;;;;;;;0.20;0.10;;;;;;;;;;5005760;28;21002;-78
2023/03/30 00:45:43;;;;;;;1.20;0.45;;;;;;;;;;5015871;28;20612;-78
2023/03/30 00:48:11;;;;;;;0.30;0.28;;;;;;;;;;5011390;28;20053;-78
2023/03/30 00:50:51;;;;;;;0.20;0.17;;;;;;;;;;5020566;28;20053;-77
2023/03/30 00:53:26;;;;;;;0.22;0.13;;;;;;;;;;5017612;28;20064;-79
2023/03/30 00:55:53;;;;;;;0.88;0.82;;;;;;;;;;5000874;28;20094;-77
2023/03/30 00:58:21;;;;;;;0.32;0.32;;;;;;;;;;5031005;28;20490;-78
2023/03/30 01:00:47;;;;;;;0.30;0.30;;;;;;;;;;5012869;28;20059;-77
2023/03/30 01:03:19;;;;;;;0.73;0.73;;;;;;;;;;5012961;28;20059;-78
2023/03/30 01:05:45;;;;;;;0.20;0.10;;;;;;;;;;4992607;28;20610;-79
2023/03/30 01:08:15;;;;;;;0.20;0.10;;;;;;;;;;5007300;28;20079;-76
2023/03/30 01:10:42;;;;;;;0.22;0.22;;;;;;;;;;4989098;28;20127;-77
2023/03/30 01:13:08;;;;;;;0.20;0.20;;;;;;;;;;5007399;28;20033;-77
2023/03/30 01:15:35;;;;;;;0.20;0.10;;;;;;;;;;5009011;28;20044;-78
2023/03/30 01:18:23;;;;;;;0.20;0.10;;;;;;;;;;5004915;28;20509;-78
2023/03/30 01:20:56;;;;;;;0.30;0.20;;;;;;;;;;5024531;28;20235;-76
2023/03/30 01:23:26;;;;;;;0.30;0.20;;;;;;;;;;5004264;28;20048;-77
2023/03/30 01:26:16;;;;;;;0.40;0.30;;;;;;;;;;5021690;28;20041;-77
2023/03/30 01:28:47;;;;;;;0.20;0.20;;;;;;;;;;4983466;28;20208;-77
2023/03/30 01:31:24;;;;;;;0.20;0.10;;;;;;;;;;5012153;28;21997;-76
2023/03/30 01:34:02;;;;;;;0.50;0.30;;;;;;;;;;5013778;28;20060;-77
2023/03/30 01:36:34;;;;;;;0.30;0.28;;;;;;;;;;5003202;28;20047;-76
2023/03/30 01:39:16;;;;;;;0.20;0.10;;;;;;;;;;5008482;28;20033;-76
2023/03/30 01:41:45;;;;;;;0.28;0.20;;;;;;;;;;5015276;28;20257;-75
2023/03/30 01:44:20;;;;;;;0.20;0.10;;;;;;;;;;5033172;28;20493;-77
2023/03/30 01:46:50;;;;;;;0.20;0.10;;;;;;;;;;5020344;28;20041;-77
2023/03/30 01:49:34;;;;;;;0.20;0.10;;;;;;;;;;5010986;28;20045;-77
2023/03/30 01:52:10;;;;;;;1.55;0.25;;;;;;;;;;4998319;28;20044;-77
2023/03/30 01:54:38;;;;;;;0.20;0.10;;;;;;;;;;5013446;28;20098;-76
2023/03/30 01:57:07;;;;;;;0.25;0.25;;;;;;;;;;5014018;28;20033;-75
2023/03/30 01:59:42;;;;;;;0.20;0.13;;;;;;;;;;5000503;28;20076;-77
2023/03/30 02:02:09;;;;;;;0.20;0.10;;;;;;;;;;5015337;28;20033;-76
2023/03/30 02:04:38;;;;;;;0.43;0.43;;;;;;;;;;5002878;28;20114;-76
2023/03/30 02:07:07;;;;;;;0.20;0.10;;;;;;;;;;5021194;28;20049;-76
2023/03/30 02:09:36;;;;;;;0.30;0.20;;;;;;;;;;5019662;28;20142;-76
2023/03/30 02:12:02;;;;;;;0.20;0.10;;;;;;;;;;5001135;28;20052;-76
2023/03/30 02:14:30;;;;;;;0.40;0.40;;;;;;;;;;5013756;28;20036;-75
2023/03/30 02:16:59;;;;;;;0.20;0.17;;;;;;;;;;5000855;28;20482;-77
2023/03/30 02:19:26;;;;;;;0.20;0.10;;;;;;;;;;5019062;28;20051;-75
2023/03/30 02:21:53;;;;;;;0.30;0.20;;;;;;;;;;5003979;28;20464;-75
2023/03/30 02:24:21;;;;;;;0.20;0.10;;;;;;;;;;5006189;28;20068;-76
2023/03/30 02:26:49;;;;;;;0.30;0.30;;;;;;;;;;5012454;28;20045;-77
2023/03/30 02:29:16;;;;;;;0.20;0.10;;;;;;;;;;5019482;28;20056;-77
2023/03/30 02:31:45;;;;;;;0.20;0.10;;;;;;;;;;5031329;28;20049;-77
2023/03/30 02:34:27;;;;;;;0.20;0.10;;;;;;;;;;5020265;28;20044;-76
2023/03/30 02:36:53;;;;;;;0.98;0.25;;;;;;;;;;5021225;28;20047;-77
2023/03/30 02:39:35;;;;;;;0.20;0.10;;;;;;;;;;5016892;28;20840;-77
2023/03/30 02:42:07;;;;;;;0.20;0.10;;;;;;;;;;5020571;28;20045;-76
2023/03/30 02:44:53;;;;;;;0.20;0.10;;;;;;;;;;5022897;28;20094;-77
2023/03/30 02:47:26;;;;;;;0.20;0.10;;;;;;;;;;5003103;28;20044;-77
2023/03/30 02:49:58;;;;;;;0.20;0.10;;;;;;;;;;5021751;28;20042;-76
2023/03/30 02:52:58;;;;;;;0.63;0.63;;;;;;;;;;5013453;28;20048;-77
2023/03/30 02:55:40;;;;;;;0.20;0.10;;;;;;;;;;4981264;28;20045;-77
2023/03/30 02:58:06;;;;;;;;;;;;;;;;;;5000989;28;20073;-76
2023/03/30 03:00:41;;;;;;;0.20;0.10;;;;;;;;;;5016963;28;19978;-77
2023/03/30 03:03:12;;;;;;;0.20;0.10;;;;;;;;;;5002814;28;20033;-75
2023/03/30 03:05:38;;;;;;;0.20;0.10;;;;;;;;;;5010250;28;20042;-76
2023/03/30 03:08:04;;;;;;;0.30;0.30;;;;;;;;;;5013973;28;20079;-76
2023/03/30 03:10:35;;;;;;;0.65;0.52;;;;;;;;;;5013826;28;20082;-75
2023/03/30 03:13:01;;;;;;;0.20;0.10;;;;;;;;;;5002172;28;20521;-76
2023/03/30 03:15:27;;;;;;;0.20;0.10;;;;;;;;;;5014507;28;20045;-76
2023/03/30 03:17:53;;;;;;;0.30;0.20;;;;;;;;;;5013428;28;20045;-75
2023/03/30 03:20:20;;;;;;;0.20;0.10;;;;;;;;;;5001120;28;20033;-76
2023/03/30 03:22:46;;;;;;;0.28;0.28;;;;;;;;;;5008033;28;20076;-77
2023/03/30 03:25:11;;;;;;;0.20;0.10;;;;;;;;;;5012681;28;20465;-76
2023/03/30 03:27:37;;;;;;;0.20;0.10;;;;;;;;;;5008339;28;20037;-76
2023/03/30 03:30:04;;;;;;;0.20;0.13;;;;;;;;;;5014836;28;20151;-75
2023/03/30 03:32:30;;;;;;;0.35;0.25;;;;;;;;;;5005707;28;20141;-77
2023/03/30 03:34:56;;;;;;;0.20;0.10;;;;;;;;;;5003321;28;20028;-76
2023/03/30 03:37:22;;;;;;;0.20;0.10;;;;;;;;;;5010347;28;20047;-75
2023/03/30 03:39:48;;;;;;;0.73;0.35;;;;;;;;;;5012974;28;20475;-76
2023/03/30 03:42:14;;;;;;;0.20;0.10;;;;;;;;;;5023323;28;20048;-76
2023/03/30 03:44:40;;;;;;;0.20;0.00;;;;;;;;;;5016575;28;20045;-76
2023/03/30 03:47:06;;;;;;;0.20;0.10;;;;;;;;;;5002141;28;20068;-77
2023/03/30 03:49:32;;;;;;;0.20;0.10;;;;;;;;;;5009938;28;20123;-76
2023/03/30 03:51:58;;;;;;;0.20;0.10;;;;;;;;;;5013475;28;20405;-75
2023/03/30 03:54:24;;;;;;;0.20;0.10;;;;;;;;;;5017642;28;20066;-77
2023/03/30 03:56:51;;;;;;;0.20;0.10;;;;;;;;;;5017674;28;20167;-75
2023/03/30 03:59:17;;;;;;;0.20;0.10;;;;;;;;;;5017096;28;20094;-76
2023/03/30 04:01:43;;;;;;;0.20;0.10;;;;;;;;;;5019479;28;20041;-75
2023/03/30 04:04:09;;;;;;;0.22;0.13;;;;;;;;;;5020309;28;20122;-75
2023/03/30 04:06:35;;;;;;;0.20;0.10;;;;;;;;;;5012310;28;20947;-75
2023/03/30 04:09:01;;;;;;;1.55;1.00;;;;;;;;;;5030970;28;20394;-76
2023/03/30 04:11:27;;;;;;;0.38;0.38;;;;;;;;;;4990795;28;20477;-77
2023/03/30 04:13:53;;;;;;;0.20;0.10;;;;;;;;;;5006041;28;20126;-77
2023/03/30 04:16:19;;;;;;;0.20;0.10;;;;;;;;;;5010780;28;20155;-77
2023/03/30 04:18:45;;;;;;;0.20;0.13;;;;;;;;;;5011746;28;20095;-76
2023/03/30 04:21:16;;;;;;;0.20;0.10;;;;;;;;;;5015914;28;20040;-76
2023/03/30 04:23:44;;;;;;;0.20;0.10;;;;;;;;;;5019203;28;20678;-76
2023/03/30 04:26:12;;;;;;;0.20;0.10;;;;;;;;;;4993218;28;20093;-76
2023/03/30 04:28:39;;;;;;;0.20;0.10;;;;;;;;;;5016725;28;20041;-77
2023/03/30 04:31:09;;;;;;;0.30;0.30;;;;;;;;;;5015078;28;20044;-74
2023/03/30 04:33:43;;;;;;;0.90;0.82;;;;;;;;;;5009150;28;20406;-76
2023/03/30 04:36:12;;;;;;;0.20;0.10;;;;;;;;;;5000063;28;20759;-75
2023/03/30 04:38:41;;;;;;;0.20;0.10;;;;;;;;;;5015004;28;20053;-77
2023/03/30 04:41:09;;;;;;;0.22;0.15;;;;;;;;;;5010311;28;20079;-77
2023/03/30 04:43:37;;;;;;;0.30;0.30;;;;;;;;;;5047625;22;21268;-79
2023/03/30 04:46:06;;;;;;;0.20;0.10;;;;;;;;;;5044234;28;20509;-80
2023/03/30 04:48:32;;;;;;;0.20;0.10;;;;;;;;;;5040174;28;20629;-79
2023/03/30 04:50:58;;;;;;;0.20;0.10;;;;;;;;;;5034380;28;20041;-78
2023/03/30 04:53:24;;;;;;;0.20;0.10;;;;;;;;;;5044496;28;20273;-78
2023/03/30 04:55:51;;;;;;;1.05;0.45;;;;;;;;;;5045189;28;20677;-79
2023/03/30 04:58:17;;;;;;;0.20;0.10;;;;;;;;;;5047408;28;20040;-79
2023/03/30 05:00:43;;;;;;;0.32;0.25;;;;;;;;;;5041762;28;20041;-77
2023/03/30 05:03:09;;;;;;;0.20;0.10;;;;;;;;;;5038641;28;20045;-80
2023/03/30 05:05:35;;;;;;;0.20;0.10;;;;;;;;;;5033964;28;20047;-78
2023/03/30 05:08:01;;;;;;;0.20;0.20;;;;;;;;;;5049453;28;20045;-79
2023/03/30 05:10:27;;;;;;;0.20;0.10;;;;;;;;;;5035190;28;20036;-79
2023/03/30 05:12:56;;;;;;;0.20;0.10;;;;;;;;;;5047207;28;20052;-79
2023/03/30 05:15:22;;;;;;;0.40;0.22;;;;;;;;;;5029331;28;20045;-78
2023/03/30 05:17:48;;;;;;;6.72;0.35;;;;;;;;;;5030665;28;20127;-80
2023/03/30 05:20:14;;;;;;;0.22;0.15;;;;;;;;;;5037423;28;20037;-82
2023/03/30 05:22:43;;;;;;;0.20;0.10;;;;;;;;;;5048270;28;20075;-80
2023/03/30 05:25:09;;;;;;;0.20;0.10;;;;;;;;;;5042686;28;20036;-79
2023/03/30 05:27:35;;;;;;;0.20;0.10;;;;;;;;;;5059571;28;20070;-79
2023/03/30 05:30:02;;;;;;;0.20;0.17;;;;;;;;;;5042203;28;20064;-79
2023/03/30 05:32:28;;;;;;;0.28;0.28;;;;;;;;;;5046951;28;20045;-79
2023/03/30 05:34:55;;;;;;;0.20;0.10;;;;;;;;;;5043346;28;20094;-79
2023/03/30 05:37:21;;;;;;;0.20;0.10;;;;;;;;;;5045169;28;20124;-79
2023/03/30 05:39:47;;;;;;;0.20;0.10;;;;;;;;;;5059849;28;20186;-79
2023/03/30 05:42:13;;;;;;;3.10;1.08;;;;;;;;;;5037188;28;20124;-79
2023/03/30 05:44:39;;;;;;;0.20;0.10;;;;;;;;;;5053352;28;20041;-78
2023/03/30 05:47:05;;;;;;;0.20;0.20;;;;;;;;;;5031533;28;21004;-78
2023/03/30 05:49:31;;;;;;;3.30;0.30;;;;;;;;;;5049609;28;20037;-79
2023/03/30 05:51:57;;;;;;;0.20;0.10;;;;;;;;;;5027868;28;20175;-78
2023/03/30 05:54:25;;;;;;;0.20;0.10;;;;;;;;;;5030065;28;20145;-78
2023/03/30 05:56:51;;;;;;;0.28;0.25;;;;;;;;;;5050068;28;20040;-79
2023/03/30 05:59:18;;;;;;;0.20;0.20;;;;;;;;;;5050074;28;20044;-79
2023/03/30 06:01:44;;;;;;;0.20;0.20;;;;;;;;;;5035759;28;20040;-79
2023/03/30 06:04:11;;;;;;;0.30;0.20;;;;;;;;;;5030731;28;20044;-79
2023/03/30 06:06:37;;;;;;;0.20;0.13;;;;;;;;;;5050160;28;20036;-81
2023/03/30 06:09:03;;;;;;;0.20;0.10;;;;;;;;;;5050650;28;20056;-79
2023/03/30 06:11:30;;;;;;;0.20;0.10;;;;;;;;;;5036019;28;20045;-79
2023/03/30 06:13:56;;;;;;;0.20;0.10;;;;;;;;;;5054358;28;21005;-78
2023/03/30 06:16:22;;;;;;;0.20;0.10;;;;;;;;;;5050889;28;20037;-79
2023/03/30 06:18:49;;;;;;;0.20;0.10;;;;;;;;;;5036570;28;20122;-78
2023/03/30 06:21:15;;;;;;;0.20;0.10;;;;;;;;;;5065639;28;20087;-80
2023/03/30 06:23:41;;;;;;;0.20;0.10;;;;;;;;;;5060663;28;20645;-79
2023/03/30 06:26:08;;;;;;;0.20;0.10;;;;;;;;;;5038768;28;20045;-80
2023/03/30 06:28:34;;;;;;;0.20;0.10;;;;;;;;;;5037958;28;20099;-79
2023/03/30 06:31:10;;;;;;;0.20;0.10;;;;;;;;;;5040700;28;20779;-80
2023/03/30 06:33:36;;;;;;;;;;;;;;;;;;5039203;28;20047;-80
2023/03/30 06:36:02;;;;;;;0.25;0.20;;;;;;;;;;5053958;28;19924;-79
2023/03/30 06:38:28;;;;;;;0.20;0.10;;;;;;;;;;5058435;28;20505;-80
2023/03/30 06:40:57;;;;;;;0.30;0.30;;;;;;;;;;5041110;28;20032;-80
2023/03/30 06:43:24;;;;;;;0.20;0.10;;;;;;;;;;5037545;28;20040;-79
2023/03/30 06:45:51;;;;;;;0.20;0.10;;;;;;;;;;5039825;28;20048;-79
2023/03/30 06:48:18;;;;;;;0.40;0.40;;;;;;;;;;5037326;28;20119;-80
2023/03/30 06:50:48;;;;;;;1.20;0.40;;;;;;;;;;5038199;28;20066;-79
2023/03/30 06:53:14;;;;;;;0.20;0.10;;;;;;;;;;5052285;28;20128;-80
2023/03/30 06:55:40;;;;;;;0.28;0.17;;;;;;;;;;5042337;28;20056;-80
2023/03/30 06:58:06;;;;;;;0.20;0.10;;;;;;;;;;5038256;28;20132;-80
2023/03/30 07:00:33;;;;;;;0.55;0.55;;;;;;;;;;5053228;28;20082;-80
2023/03/30 07:02:59;;;;;;;0.20;0.10;;;;;;;;;;5042459;28;20044;-77
2023/03/30 07:05:27;;;;;;;0.40;0.40;;;;;;;;;;5052175;28;20044;-79
2023/03/30 07:07:53;;;;;;;0.25;0.20;;;;;;;;;;5053006;28;20128;-78
2023/03/30 07:10:20;;;;;;;0.70;0.70;;;;;;;;;;5053619;28;20054;-77
2023/03/30 07:12:46;;;;;;;0.20;0.20;;;;;;;;;;5054756;28;20037;-78
2023/03/30 07:15:12;;;;;;;3.30;1.75;;;;;;;;;;5036984;28;20064;-79
2023/03/30 07:17:38;;;;;;;0.45;0.45;;;;;;;;;;5041027;28;20483;-78
2023/03/30 07:20:05;;;;;;;0.20;0.10;;;;;;;;;;5034520;28;20047;-78
2023/03/30 07:22:31;;;;;;;0.20;0.20;;;;;;;;;;5048550;28;20033;-77
2023/03/30 07:24:57;;;;;;;0.20;0.20;;;;;;;;;;5051992;28;20041;-78
2023/03/30 07:27:23;;;;;;;0.20;0.20;;;;;;;;;;5052216;28;20074;-78
2023/03/30 07:29:51;;;;;;;0.20;0.10;;;;;;;;;;5051422;28;20036;-78
2023/03/30 07:32:17;;;;;;;0.20;0.05;;;;;;;;;;5060421;28;20044;-77
2023/03/30 07:34:43;;;;;;;0.80;0.30;;;;;;;;;;5059413;28;20431;-79
2023/03/30 07:37:09;;;;;;;0.20;0.10;;;;;;;;;;5054919;28;20073;-77
2023/03/30 07:39:35;;;;;;;0.30;0.20;;;;;;;;;;5032303;28;20044;-78
2023/03/30 07:42:02;;;;;;;0.20;0.10;;;;;;;;;;5036502;28;20658;-78
2023/03/30 07:44:29;;;;;;;0.20;0.20;;;;;;;;;;5033188;28;20610;-77
2023/03/30 07:46:55;;;;;;;0.20;0.10;;;;;;;;;;5033212;28;20574;-79
2023/03/30 07:49:21;;;;;;;0.20;0.10;;;;;;;;;;5036333;28;20159;-77
2023/03/30 07:51:47;;;;;;;0.63;0.63;;;;;;;;;;5041223;28;20071;-77
2023/03/30 07:54:14;;;;;;;0.20;0.10;;;;;;;;;;5037304;28;20044;-80
2023/03/30 07:56:41;;;;;;;0.45;0.20;;;;;;;;;;5054824;28;20055;-78
2023/03/30 07:59:08;;;;;;;0.45;0.40;;;;;;;;;;5039132;28;20506;-81
2023/03/30 08:01:34;;;;;;;0.20;0.10;;;;;;;;;;5033975;28;20306;-76
2023/03/30 08:04:01;;;;;;;1.65;0.75;;;;;;;;;;5036011;28;20639;-77
2023/03/30 08:06:28;;;;;;;0.20;0.10;;;;;;;;;;5031163;28;20054;-76
2023/03/30 08:08:54;;;;;;;0.80;0.80;;;;;;;;;;5051672;28;20484;-78
2023/03/30 08:11:21;;;;;;;0.20;0.10;;;;;;;;;;5056999;28;20060;-79
2023/03/30 08:13:47;;;;;;;0.20;0.20;;;;;;;;;;5033544;28;20040;-79
2023/03/30 08:16:13;;;;;;;0.20;0.10;;;;;;;;;;5042567;28;20071;-78
2023/03/30 08:18:42;;;;;;;0.30;0.20;;;;;;;;;;5035915;28;20501;-78
2023/03/30 08:21:09;;;;;;;0.77;0.77;;;;;;;;;;5039700;28;20052;-77
2023/03/30 08:23:35;;;;;;;0.22;0.22;;;;;;;;;;5029924;28;20052;-78
2023/03/30 08:26:02;;;;;;;0.50;0.35;;;;;;;;;;5052884;28;20137;-78
2023/03/30 08:28:28;;;;;;;0.50;0.30;;;;;;;;;;5031393;28;20079;-80
2023/03/30 08:30:54;;;;;;;0.20;0.10;;;;;;;;;;5047601;28;20517;-78
2023/03/30 08:33:22;;;;;;;3.33;1.38;;;;;;;;;;5057462;28;20041;-78
2023/03/30 08:35:49;;;;;;;0.20;0.10;;;;;;;;;;5037438;28;20039;-79
2023/03/30 08:38:16;;;;;;;0.20;0.10;;;;;;;;;;5035401;28;20154;-77
2023/03/30 08:40:42;;;;;;;0.20;0.10;;;;;;;;;;5028267;28;20032;-79
2023/03/30 08:43:21;;;;;;;1.40;1.30;;;;;;;;;;5049183;28;20418;-79
2023/03/30 08:45:47;;;;;;;3.60;1.50;;;;;;;;;;5033618;28;20575;-79
2023/03/30 08:48:16;;;;;;;1.60;1.20;;;;;;;;;;5033065;28;20344;-78
2023/03/30 08:50:46;;;;;;;0.20;0.10;;;;;;;;;;5051864;28;20041;-80
2023/03/30 08:53:13;;;;;;;0.20;0.10;;;;;;;;;;5031481;28;20451;-79
2023/03/30 08:56:09;;;;;;;0.20;0.10;;;;;;;;;;5036937;28;20040;-81
2023/03/30 08:58:47;;;;;;;0.68;0.17;;;;;;;;;;5023837;28;20060;-78
2023/03/30 09:01:21;;;;;;;0.20;0.10;;;;;;;;;;5035963;28;20052;-78
2023/03/30 09:03:59;;;;;;;0.20;0.13;;;;;;;;;;5052536;28;20104;-78
2023/03/30 09:06:39;;;;;;;0.52;0.52;;;;;;;;;;5052724;28;20045;-78
2023/03/30 09:09:07;;;;;;;0.20;0.10;;;;;;;;;;5037224;28;20048;-77
2023/03/30 09:11:35;;;;;;;0.50;0.50;;;;;;;;;;5051237;28;20599;-79
2023/03/30 09:14:04;;;;;;;0.20;0.10;;;;;;;;;;5039362;28;20054;-78
2023/03/30 09:16:38;;;;;;;0.20;0.10;;;;;;;;;;5045372;28;20047;-79
2023/03/30 09:19:05;;;;;;;0.20;0.10;;;;;;;;;;5034136;28;20044;-80
2023/03/30 09:21:31;;;;;;;0.90;0.85;;;;;;;;;;5049114;28;20051;-77
2023/03/30 09:23:58;;;;;;;0.20;0.10;;;;;;;;;;5023350;28;20044;-79
2023/03/30 09:26:24;;;;;;;0.20;0.10;;;;;;;;;;5032857;28;20500;-80
2023/03/30 09:28:57;;;;;;;0.20;0.10;;;;;;;;;;5028825;28;21104;-76
2023/03/30 09:31:40;;;;;;;0.20;0.05;;;;;;;;;;5050591;28;20043;-79
2023/03/30 09:34:06;;;;;;;0.60;0.38;;;;;;;;;;5034587;28;20048;-79
2023/03/30 09:36:56;;;;;;;0.20;0.10;;;;;;;;;;5050641;28;20058;-79
2023/03/30 09:39:27;;;;;;;0.73;0.25;;;;;;;;;;5052039;28;20143;-79
2023/03/30 09:42:12;;;;;;;0.20;0.10;;;;;;;;;;5048459;28;20040;-81
2023/03/30 09:44:48;;;;;;;0.20;0.10;;;;;;;;;;5031194;28;20420;-78
2023/03/30 09:47:27;;;;;;;0.20;0.20;;;;;;;;;;5032364;28;20044;-80
2023/03/30 09:49:56;;;;;;;0.20;0.10;;;;;;;;;;5031233;28;20377;-79
2023/03/30 09:52:23;;;;;;;0.20;0.10;;;;;;;;;;5031792;28;20051;-80
2023/03/30 09:54:49;;;;;;;0.20;0.10;;;;;;;;;;5037036;28;20041;-78
2023/03/30 09:57:32;;;;;;;0.20;0.10;;;;;;;;;;5028690;28;20044;-78
2023/03/30 09:59:59;;;;;;;0.68;0.68;;;;;;;;;;5027075;28;20040;-78
2023/03/30 10:02:27;;;;;;;0.20;0.20;;;;;;;;;;5028984;28;20041;-79
2023/03/30 10:04:55;;;;;;;0.20;0.10;;;;;;;;;;5053165;28;20050;-77
2023/03/30 10:07:21;;;;;;;1.50;1.00;;;;;;;;;;5067837;28;20048;-78
2023/03/30 10:09:47;;;;;;;0.20;0.10;;;;;;;;;;5053269;28;20041;-78
2023/03/30 10:12:14;;;;;;;0.20;0.10;;;;;;;;;;5039567;28;20174;-80
2023/03/30 10:14:40;;;;;;;0.20;0.20;;;;;;;;;;5059607;28;20056;-76
2023/03/30 10:17:07;;;;;;;0.20;0.10;;;;;;;;;;5053818;28;20044;-78
2023/03/30 10:19:34;;;;;;;0.20;0.10;;;;;;;;;;5050501;28;20051;-76
2023/03/30 10:22:03;;;;;;;0.25;0.20;;;;;;;;;;5045060;28;20048;-78
2023/03/30 10:24:31;;;;;;;0.30;0.30;;;;;;;;;;5055697;28;20512;-78
2023/03/30 10:26:58;;;;;;;0.20;0.10;;;;;;;;;;5048815;28;20138;-80
2023/03/30 10:29:26;;;;;;;0.20;0.10;;;;;;;;;;5041991;28;20513;-78
2023/03/30 10:31:57;;;;;;;0.20;0.10;;;;;;;;;;5055566;28;20036;-79
2023/03/30 10:34:30;;;;;;;0.20;0.10;;;;;;;;;;5036426;28;20032;-81
2023/03/30 10:36:57;;;;;;;0.20;0.10;;;;;;;;;;5037199;28;20107;-79
2023/03/30 10:39:23;;;;;;;0.47;0.47;;;;;;;;;;5038331;28;20539;-77
2023/03/30 10:44:34;;;;;;;0.20;0.08;;;;;;;;;;4994263;28;20045;-77
2023/03/30 10:47:14;;;;;;;0.20;0.10;;;;;;;;;;4977567;28;20046;-77
2023/03/30 10:49:47;;;;;;;0.20;0.10;;;;;;;;;;4984089;28;20201;-78
2023/03/30 10:52:29;;;;;;;0.20;0.10;;;;;;;;;;4993679;28;20041;-78
2023/03/30 10:55:21;;;;;;;0.32;0.22;;;;;;;;;;4988265;28;20053;-78
2023/03/30 10:58:06;;;;;;;0.20;0.15;;;;;;;;;;4957058;28;20068;-81
2023/03/30 11:00:42;;;;;;;0.20;0.10;;;;;;;;;;4987259;28;20096;-79
2023/03/30 11:03:11;;;;;;;0.20;0.10;;;;;;;;;;4979090;28;20054;-78
2023/03/30 11:05:39;;;;;;;0.50;0.40;;;;;;;;;;4975046;28;20137;-79
2023/03/30 11:08:31;;;;;;;0.20;0.10;;;;;;;;;;4993503;28;20128;-79
2023/03/30 11:10:59;;;;;;;0.20;0.10;;;;;;;;;;4956434;28;20054;-78
2023/03/30 11:13:31;;;;;;;0.20;0.10;;;;;;;;;;4981465;28;20433;-78
2023/03/30 11:16:03;;;;;;;0.40;0.40;;;;;;;;;;4986168;28;20399;-79
2023/03/30 11:18:29;;;;;;;0.20;0.10;;;;;;;;;;5002526;28;20049;-78
2023/03/30 11:20:56;;;;;;;0.20;0.10;;;;;;;;;;4967286;28;20037;-80
2023/03/30 11:23:26;;;;;;;0.20;0.10;;;;;;;;;;4982290;28;20425;-78
2023/03/30 11:25:58;;;;;;;0.20;0.10;;;;;;;;;;4981499;28;20050;-78
2023/03/30 11:28:27;;;;;;;0.43;0.40;;;;;;;;;;4969131;28;20050;-77
2023/03/30 11:30:56;;;;;;;0.20;0.10;;;;;;;;;;4981840;28;20050;-79
2023/03/30 11:33:28;;;;;;;0.20;0.10;;;;;;;;;;4978520;28;20040;-78
2023/03/30 11:35:54;;;;;;;;;;;;;;;;;;4982199;28;20038;-78
2023/03/30 11:38:39;;;;;;;0.30;0.30;;;;;;;;;;4972986;28;19954;-78
2023/03/30 11:41:15;;;;;;;0.20;0.20;;;;;;;;;;4965378;28;20141;-80
2023/03/30 11:43:42;;;;;;;0.20;0.10;;;;;;;;;;4984482;28;20084;-79
2023/03/30 11:46:14;;;;;;;0.20;0.20;;;;;;;;;;4981054;28;20087;-80
2023/03/30 11:48:48;;;;;;;1.40;1.30;;;;;;;;;;4983072;28;20225;-79
2023/03/30 11:51:14;;;;;;;0.20;0.10;;;;;;;;;;4995523;28;20041;-78
2023/03/30 11:53:59;;;;;;;0.20;0.10;;;;;;;;;;4980566;28;20069;-77
2023/03/30 11:56:38;;;;;;;0.20;0.10;;;;;;;;;;4977513;28;20043;-77
2023/03/30 11:59:05;;;;;;;0.20;0.10;;;;;;;;;;4990194;28;20049;-78
2023/03/30 12:01:42;;;;;;;0.20;0.10;;;;;;;;;;4967951;28;20093;-78
2023/03/30 12:04:14;;;;;;;0.20;0.10;;;;;;;;;;4989827;28;20128;-78
2023/03/30 12:06:57;;;;;;;0.20;0.10;;;;;;;;;;4974829;28;20045;-80
2023/03/30 12:09:34;;;;;;;0.20;0.10;;;;;;;;;;4995266;28;20049;-80
2023/03/30 12:12:04;;;;;;;0.20;0.15;;;;;;;;;;4991260;28;20068;-79
2023/03/30 12:14:33;;;;;;;0.20;0.10;;;;;;;;;;4971559;28;20199;-78
2023/03/30 12:17:01;;;;;;;0.20;0.10;;;;;;;;;;4970771;28;20076;-80
2023/03/30 12:19:30;;;;;;;2.00;1.88;;;;;;;;;;4983188;28;20061;-78
2023/03/30 12:22:35;;;;;;;0.30;0.10;;;;;;;;;;5003367;28;20038;-80
2023/03/30 12:25:14;;;;;;;0.20;0.10;;;;;;;;;;4898198;29;20079;-80
2023/03/30 12:28:13;;;;;;;0.20;0.20;;;;;;;;;;4868527;29;20044;-76
2023/03/30 12:30:53;;;;;;;1.58;1.48;;;;;;;;;;4940314;28;20393;-77
2023/03/30 12:33:27;;;;;;;0.20;0.10;;;;;;;;;;4996156;28;20045;-78
2023/03/30 12:35:57;;;;;;;0.20;0.10;;;;;;;;;;4973703;28;20100;-77
2023/03/30 12:38:25;;;;;;;0.28;0.28;;;;;;;;;;4994883;28;20511;-82
2023/03/30 12:41:02;;;;;;;1.75;0.82;;;;;;;;;;4991224;28;20132;-79
2023/03/30 12:43:28;;;;;;;0.20;0.10;;;;;;;;;;4990475;28;20463;-78
2023/03/30 12:46:18;;;;;;;0.75;0.57;;;;;;;;;;4974782;28;20483;-78
2023/03/30 12:48:51;;;;;;;0.20;0.10;;;;;;;;;;4983057;28;20422;-77
2023/03/30 12:51:36;;;;;;;0.20;0.10;;;;;;;;;;4978630;28;20457;-79
2023/03/30 12:54:07;;;;;;;0.20;0.20;;;;;;;;;;4997347;28;20049;-80
2023/03/30 12:56:52;;;;;;;0.20;0.10;;;;;;;;;;4986016;28;20041;-77
2023/03/30 12:59:34;;;;;;;0.20;0.10;;;;;;;;;;4988577;28;20045;-79
2023/03/30 13:02:19;;;;;;;0.45;0.45;;;;;;;;;;4983093;28;21257;-76
2023/03/30 13:04:47;;;;;;;0.20;0.10;;;;;;;;;;4974052;28;20042;-78
2023/03/30 13:07:15;;;;;;;1.10;0.57;;;;;;;;;;4984227;28;20045;-78
2023/03/30 13:10:07;;;;;;;0.20;0.10;;;;;;;;;;4992824;28;20133;-79
2023/03/30 13:12:36;;;;;;;0.20;0.10;;;;;;;;;;4977882;28;20046;-80
2023/03/30 13:15:02;;;;;;;2.72;1.85;;;;;;;;;;4992845;28;20054;-79
2023/03/30 13:17:46;;;;;;;1.45;1.33;;;;;;;;;;4982274;28;20042;-77
2023/03/30 13:20:15;;;;;;;0.43;0.43;;;;;;;;;;4972857;28;20256;-76
2023/03/30 13:22:51;;;;;;;0.20;0.10;;;;;;;;;;4979590;28;20136;-79
2023/03/30 13:25:45;;;;;;;0.28;0.28;;;;;;;;;;4987890;28;20037;-80
2023/03/30 13:28:30;;;;;;;0.20;0.10;;;;;;;;;;4976764;28;20111;-76
2023/03/30 13:30:59;;;;;;;0.73;0.63;;;;;;;;;;4978904;28;20552;-77
2023/03/30 13:33:26;;;;;;;0.20;0.10;;;;;;;;;;4983819;28;20557;-78
2023/03/30 13:36:12;;;;;;;0.20;0.10;;;;;;;;;;5000409;28;20040;-81
2023/03/30 13:38:50;;;;;;;0.55;0.30;;;;;;;;;;5000919;28;20042;-78
2023/03/30 13:41:27;;;;;;;0.20;0.10;;;;;;;;;;4967469;28;20037;-77
2023/03/30 13:44:11;;;;;;;0.68;0.68;;;;;;;;;;4986807;28;20095;-79
2023/03/30 13:46:37;;;;;;;2.45;1.83;;;;;;;;;;4984949;28;20368;-79
2023/03/30 13:49:03;;;;;;;0.20;0.10;;;;;;;;;;4973945;28;20049;-77
2023/03/30 13:51:30;;;;;;;0.20;0.10;;;;;;;;;;4994346;28;20168;-81
2023/03/30 13:53:59;;;;;;;0.20;0.10;;;;;;;;;;4987729;28;20046;-77
2023/03/30 13:56:26;;;;;;;0.20;0.10;;;;;;;;;;4989233;28;20042;-80
2023/03/30 13:59:18;;;;;;;0.50;0.50;;;;;;;;;;4977872;28;20064;-79
2023/03/30 14:01:48;;;;;;;0.20;0.10;;;;;;;;;;4979287;28;20057;-78
2023/03/30 14:04:15;;;;;;;1.05;1.05;;;;;;;;;;4976597;28;20457;-78
2023/03/30 14:06:44;;;;;;;0.20;0.10;;;;;;;;;;4985968;28;20414;-79
2023/03/30 14:09:12;;;;;;;0.20;0.10;;;;;;;;;;4982131;28;20755;-79
2023/03/30 14:11:39;;;;;;;0.20;0.10;;;;;;;;;;4987034;28;20045;-79
2023/03/30 14:14:06;;;;;;;0.35;0.35;;;;;;;;;;4979821;28;20042;-78
2023/03/30 14:16:33;;;;;;;0.20;0.10;;;;;;;;;;4981745;28;20064;-78
2023/03/30 14:19:12;;;;;;;0.20;0.10;;;;;;;;;;4978515;28;20092;-78
2023/03/30 14:21:42;;;;;;;0.20;0.10;;;;;;;;;;4984194;28;20042;-78
2023/03/30 14:24:10;;;;;;;0.43;0.43;;;;;;;;;;4993201;28;20049;-79
2023/03/30 14:26:39;;;;;;;0.70;0.68;;;;;;;;;;4973957;28;20061;-78
2023/03/30 14:29:07;;;;;;;0.20;0.10;;;;;;;;;;4976638;28;20057;-78
2023/03/30 14:31:40;;;;;;;0.30;0.22;;;;;;;;;;4985324;28;20046;-77
2023/03/30 14:34:24;;;;;;;2.70;1.85;;;;;;;;;;4973199;28;20533;-79
2023/03/30 14:36:50;;;;;;;0.20;0.10;;;;;;;;;;4978807;28;20453;-80
2023/03/30 14:39:16;;;;;;;0.20;0.20;;;;;;;;;;4983551;28;20038;-79
2023/03/30 14:41:42;;;;;;;0.30;0.30;;;;;;;;;;4995505;28;20046;-79
2023/03/30 14:44:11;;;;;;;0.77;0.20;;;;;;;;;;4980273;28;20085;-78
2023/03/30 14:46:47;;;;;;;0.98;0.73;;;;;;;;;;4985191;28;20042;-78
2023/03/30 14:49:17;;;;;;;0.20;0.17;;;;;;;;;;4983754;28;20813;-78
2023/03/30 14:51:45;;;;;;;0.20;0.10;;;;;;;;;;4977087;28;20106;-77
2023/03/30 14:54:13;;;;;;;0.20;0.10;;;;;;;;;;4970569;28;20046;-78
2023/03/30 14:56:39;;;;;;;0.35;0.17;;;;;;;;;;4980185;28;20044;-81
2023/03/30 14:59:06;;;;;;;0.20;0.10;;;;;;;;;;4977682;28;20045;-78
2023/03/30 15:01:32;;;;;;;0.20;0.10;;;;;;;;;;4986580;28;20050;-78
2023/03/30 15:04:06;;;;;;;1.75;0.85;;;;;;;;;;4956228;28;20455;-77